sensor_id;sensor_type;location;lat;lon;timestamp;pressure;altitude;pressure_sealevel;temperature;humidity
39491;BME280;25175;50.140;18.990;2023-04-24T00:00:06;97633.50;;;13.19;51.28
39491;BME280;25175;50.140;18.990;2023-04-24T00:03:17;97629.81;;;13.20;51.09
39491;BME280;25175;50.140;18.990;2023-04-24T00:06:23;97585.44;;;12.91;51.16
39491;BME280;25175;50.140;18.990;2023-04-24T00:09:34;97607.25;;;13.08;51.06
39491;BME280;25175;50.140;18.990;2023-04-24T00:12:43;97596.56;;;12.98;51.08
39491;BME280;25175;50.140;18.990;2023-04-24T00:15:49;97612.06;;;13.11;50.81
39491;BME280;25175;50.140;18.990;2023-04-24T00:18:55;97613.88;;;13.10;51.05
39491;BME280;25175;50.140;18.990;2023-04-24T00:22:22;97617.25;;;13.06;50.84
39491;BME280;25175;50.140;18.990;2023-04-24T00:29:37;97600.09;;;12.87;50.99
39491;BME280;25175;50.140;18.990;2023-04-24T00:32:45;97598.69;;;12.79;51.19
39491;BME280;25175;50.140;18.990;2023-04-24T00:35:51;97594.41;;;12.73;51.30
39491;BME280;25175;50.140;18.990;2023-04-24T00:39:00;97588.28;;;12.68;51.58
39491;BME280;25175;50.140;18.990;2023-04-24T00:42:05;97584.31;;;12.65;51.29
39491;BME280;25175;50.140;18.990;2023-04-24T00:45:14;97585.00;;;12.61;51.81
39491;BME280;25175;50.140;18.990;2023-04-24T00:48:24;97580.72;;;12.55;51.81
39491;BME280;25175;50.140;18.990;2023-04-24T00:51:48;97580.53;;;12.40;51.95
39491;BME280;25175;50.140;18.990;2023-04-24T00:55:00;97579.41;;;12.36;52.07
39491;BME280;25175;50.140;18.990;2023-04-24T00:58:07;97581.94;;;12.31;52.27
39491;BME280;25175;50.140;18.990;2023-04-24T01:01:17;97578.47;;;12.25;52.63
39491;BME280;25175;50.140;18.990;2023-04-24T01:04:28;97577.09;;;12.23;52.56
39491;BME280;25175;50.140;18.990;2023-04-24T01:11:14;97573.13;;;12.20;52.68
39491;BME280;25175;50.140;18.990;2023-04-24T01:14:31;97572.31;;;12.20;52.55
39491;BME280;25175;50.140;18.990;2023-04-24T01:17:39;97558.34;;;12.19;52.09
39491;BME280;25175;50.140;18.990;2023-04-24T01:20:46;97553.91;;;12.20;52.17
39491;BME280;25175;50.140;18.990;2023-04-24T01:23:55;97557.00;;;12.17;52.19
39491;BME280;25175;50.140;18.990;2023-04-24T01:27:03;97559.81;;;12.10;51.83
39491;BME280;25175;50.140;18.990;2023-04-24T01:30:10;97552.97;;;12.09;51.42
39491;BME280;25175;50.140;18.990;2023-04-24T01:33:17;97551.13;;;12.10;51.16
39491;BME280;25175;50.140;18.990;2023-04-24T01:36:49;97545.63;;;12.11;51.11
39491;BME280;25175;50.140;18.990;2023-04-24T01:40:05;97549.59;;;12.14;51.00
39491;BME280;25175;50.140;18.990;2023-04-24T01:43:12;97541.94;;;12.12;50.79
39491;BME280;25175;50.140;18.990;2023-04-24T01:50:56;97534.06;;;11.96;50.63
39491;BME280;25175;50.140;18.990;2023-04-24T01:54:03;97534.06;;;11.96;50.46
39491;BME280;25175;50.140;18.990;2023-04-24T01:57:16;97535.06;;;11.95;50.39
39491;BME280;25175;50.140;18.990;2023-04-24T02:00:23;97535.06;;;11.95;50.21
39491;BME280;25175;50.140;18.990;2023-04-24T02:03:28;97540.00;;;11.91;50.18
39491;BME280;25175;50.140;18.990;2023-04-24T02:06:35;97533.41;;;11.89;50.67
39491;BME280;25175;50.140;18.990;2023-04-24T02:09:40;97530.63;;;11.79;50.92
39491;BME280;25175;50.140;18.990;2023-04-24T02:12:57;97526.78;;;11.70;51.17
39491;BME280;25175;50.140;18.990;2023-04-24T02:16:04;97522.16;;;11.60;51.83
39491;BME280;25175;50.140;18.990;2023-04-24T02:19:10;97512.75;;;11.48;52.21
39491;BME280;25175;50.140;18.990;2023-04-24T02:22:18;97517.69;;;11.44;52.38
39491;BME280;25175;50.140;18.990;2023-04-24T02:25:25;97512.13;;;11.41;52.75
39491;BME280;25175;50.140;18.990;2023-04-24T02:28:48;97514.41;;;11.37;52.86
39491;BME280;25175;50.140;18.990;2023-04-24T02:31:56;97500.94;;;11.34;52.68
39491;BME280;25175;50.140;18.990;2023-04-24T02:35:01;97503.97;;;11.26;52.68
39491;BME280;25175;50.140;18.990;2023-04-24T02:38:13;97508.06;;;11.22;52.88
39491;BME280;25175;50.140;18.990;2023-04-24T02:41:19;97506.50;;;11.21;52.66
39491;BME280;25175;50.140;18.990;2023-04-24T02:44:27;97498.84;;;11.19;52.92
39491;BME280;25175;50.140;18.990;2023-04-24T02:47:32;97511.19;;;11.19;52.59
39491;BME280;25175;50.140;18.990;2023-04-24T02:50:38;97506.72;;;11.19;52.82
39491;BME280;25175;50.140;18.990;2023-04-24T02:53:46;97503.78;;;11.16;52.93
39491;BME280;25175;50.140;18.990;2023-04-24T02:57:01;97499.00;;;11.13;53.03
39491;BME280;25175;50.140;18.990;2023-04-24T03:00:12;97501.75;;;11.06;52.98
39491;BME280;25175;50.140;18.990;2023-04-24T03:03:29;97497.78;;;11.04;52.94
39491;BME280;25175;50.140;18.990;2023-04-24T03:06:41;97499.84;;;11.02;53.05
39491;BME280;25175;50.140;18.990;2023-04-24T03:09:49;97502.94;;;10.99;53.27
39491;BME280;25175;50.140;18.990;2023-04-24T03:13:11;97493.69;;;10.96;53.42
39491;BME280;25175;50.140;18.990;2023-04-24T03:16:23;97500.78;;;10.96;53.58
39491;BME280;25175;50.140;18.990;2023-04-24T03:19:30;97499.97;;;10.95;53.25
39491;BME280;25175;50.140;18.990;2023-04-24T03:22:41;97498.38;;;10.94;53.10
39491;BME280;25175;50.140;18.990;2023-04-24T03:25:47;97499.16;;;10.95;53.34
39491;BME280;25175;50.140;18.990;2023-04-24T03:28:55;97497.69;;;10.99;53.46
39491;BME280;25175;50.140;18.990;2023-04-24T03:32:03;97505.78;;;10.97;52.76
39491;BME280;25175;50.140;18.990;2023-04-24T03:35:11;97491.56;;;10.93;53.12
39491;BME280;25175;50.140;18.990;2023-04-24T03:38:16;97506.59;;;10.98;53.11
39491;BME280;25175;50.140;18.990;2023-04-24T03:41:38;97496.09;;;10.98;52.91
39491;BME280;25175;50.140;18.990;2023-04-24T03:44:55;97492.66;;;10.97;53.25
39491;BME280;25175;50.140;18.990;2023-04-24T03:48:09;97495.59;;;11.01;53.22
39491;BME280;25175;50.140;18.990;2023-04-24T03:51:14;97504.16;;;11.08;53.14
39491;BME280;25175;50.140;18.990;2023-04-24T03:58:44;97507.28;;;11.21;52.74
39491;BME280;25175;50.140;18.990;2023-04-24T04:01:51;97501.88;;;11.28;53.11
39491;BME280;25175;50.140;18.990;2023-04-24T04:05:00;97499.13;;;11.34;52.76
39491;BME280;25175;50.140;18.990;2023-04-24T04:08:06;97503.66;;;11.39;51.64
39491;BME280;25175;50.140;18.990;2023-04-24T04:11:11;97431.91;;;10.77;51.26
39491;BME280;25175;50.140;18.990;2023-04-24T04:14:17;97501.69;;;11.46;51.32
39491;BME280;25175;50.140;18.990;2023-04-24T04:17:23;97482.09;;;11.37;51.34
39491;BME280;25175;50.140;18.990;2023-04-24T04:20:32;97505.91;;;11.47;51.11
39491;BME280;25175;50.140;18.990;2023-04-24T04:23:38;97496.19;;;11.47;50.54
39491;BME280;25175;50.140;18.990;2023-04-24T04:26:50;97493.31;;;11.49;50.65
39491;BME280;25175;50.140;18.990;2023-04-24T04:30:09;97492.88;;;11.52;50.46
39491;BME280;25175;50.140;18.990;2023-04-24T04:33:28;97495.56;;;11.57;49.61
39491;BME280;25175;50.140;18.990;2023-04-24T04:36:36;97368.84;;;10.72;49.14
39491;BME280;25175;50.140;18.990;2023-04-24T04:39:59;97494.84;;;11.61;48.57
39491;BME280;25175;50.140;18.990;2023-04-24T04:43:13;97500.09;;;11.61;47.74
39491;BME280;25175;50.140;18.990;2023-04-24T04:46:50;97495.41;;;11.63;47.47
39491;BME280;25175;50.140;18.990;2023-04-24T04:50:02;97500.19;;;11.66;47.28
39491;BME280;25175;50.140;18.990;2023-04-24T04:53:13;97487.59;;;11.68;47.44
39491;BME280;25175;50.140;18.990;2023-04-24T04:56:20;97497.66;;;11.71;47.42
39491;BME280;25175;50.140;18.990;2023-04-24T05:03:26;97500.69;;;11.80;47.66
39491;BME280;25175;50.140;18.990;2023-04-24T05:06:44;97497.56;;;11.83;47.36
39491;BME280;25175;50.140;18.990;2023-04-24T05:09:55;97500.75;;;11.85;47.64
39491;BME280;25175;50.140;18.990;2023-04-24T05:13:01;97499.22;;;11.89;47.56
39491;BME280;25175;50.140;18.990;2023-04-24T05:16:08;97502.41;;;11.91;46.44
39491;BME280;25175;50.140;18.990;2023-04-24T05:19:15;97499.31;;;11.94;46.47
39491;BME280;25175;50.140;18.990;2023-04-24T05:22:23;97495.41;;;11.96;46.28
39491;BME280;25175;50.140;18.990;2023-04-24T05:25:32;97490.47;;;12.00;46.54
39491;BME280;25175;50.140;18.990;2023-04-24T05:28:45;97491.13;;;12.07;46.85
39491;BME280;25175;50.140;18.990;2023-04-24T05:31:53;97494.63;;;12.12;47.13
39491;BME280;25175;50.140;18.990;2023-04-24T05:34:58;97496.50;;;12.17;47.01
39491;BME280;25175;50.140;18.990;2023-04-24T05:38:16;97494.75;;;12.22;47.07
39491;BME280;25175;50.140;18.990;2023-04-24T05:41:27;97503.19;;;12.24;47.08
39491;BME280;25175;50.140;18.990;2023-04-24T05:44:50;97494.03;;;12.27;46.76
39491;BME280;25175;50.140;18.990;2023-04-24T05:47:56;97491.97;;;12.29;46.19
39491;BME280;25175;50.140;18.990;2023-04-24T05:51:03;97491.47;;;12.32;46.14
39491;BME280;25175;50.140;18.990;2023-04-24T05:54:09;97491.78;;;12.35;45.07
39491;BME280;25175;50.140;18.990;2023-04-24T05:57:19;97479.66;;;12.34;44.83
39491;BME280;25175;50.140;18.990;2023-04-24T06:00:32;97491.84;;;12.40;44.58
39491;BME280;25175;50.140;18.990;2023-04-24T06:03:43;97490.09;;;12.46;44.80
39491;BME280;25175;50.140;18.990;2023-04-24T06:06:48;97488.88;;;12.53;44.47
39491;BME280;25175;50.140;18.990;2023-04-24T06:10:01;97481.81;;;12.59;44.14
39491;BME280;25175;50.140;18.990;2023-04-24T06:13:17;97473.00;;;12.70;44.63
39491;BME280;25175;50.140;18.990;2023-04-24T06:16:42;97476.31;;;12.82;44.23
39491;BME280;25175;50.140;18.990;2023-04-24T06:20:06;97477.78;;;12.94;43.92
39491;BME280;25175;50.140;18.990;2023-04-24T06:23:13;97477.41;;;13.07;44.06
39491;BME280;25175;50.140;18.990;2023-04-24T06:26:18;97473.06;;;13.18;43.28
39491;BME280;25175;50.140;18.990;2023-04-24T06:29:30;97472.09;;;13.29;44.01
39491;BME280;25175;50.140;18.990;2023-04-24T06:32:35;97451.59;;;13.36;43.62
39491;BME280;25175;50.140;18.990;2023-04-24T06:35:41;97465.50;;;13.58;43.93
39491;BME280;25175;50.140;18.990;2023-04-24T06:38:47;97466.69;;;13.72;43.74
39491;BME280;25175;50.140;18.990;2023-04-24T06:41:54;97446.16;;;13.79;43.32
39491;BME280;25175;50.140;18.990;2023-04-24T06:45:41;97451.06;;;13.97;43.66
39491;BME280;25175;50.140;18.990;2023-04-24T06:48:30;97469.09;;;14.15;43.16
39491;BME280;25175;50.140;18.990;2023-04-24T06:51:35;97459.69;;;14.29;41.70
39491;BME280;25175;50.140;18.990;2023-04-24T06:54:45;97457.09;;;14.39;41.67
39491;BME280;25175;50.140;18.990;2023-04-24T06:57:53;97437.31;;;14.41;40.75
39491;BME280;25175;50.140;18.990;2023-04-24T07:01:09;97455.13;;;14.66;41.44
39491;BME280;25175;50.140;18.990;2023-04-24T07:04:15;97454.63;;;14.78;39.79
39491;BME280;25175;50.140;18.990;2023-04-24T07:07:21;97453.38;;;14.91;41.04
39491;BME280;25175;50.140;18.990;2023-04-24T07:10:48;97258.19;;;13.88;40.46
39491;BME280;25175;50.140;18.990;2023-04-24T07:14:03;97447.38;;;15.26;39.10
39491;BME280;25175;50.140;18.990;2023-04-24T07:17:14;97165.84;;;13.63;39.21
39491;BME280;25175;50.140;18.990;2023-04-24T07:20:41;97442.63;;;15.57;38.99
39491;BME280;25175;50.140;18.990;2023-04-24T07:23:47;97427.31;;;15.70;36.96
39491;BME280;25175;50.140;18.990;2023-04-24T07:26:59;97438.94;;;15.83;37.49
39491;BME280;25175;50.140;18.990;2023-04-24T07:30:06;97420.66;;;15.87;36.63
39491;BME280;25175;50.140;18.990;2023-04-24T07:33:17;97431.47;;;16.10;37.52
39491;BME280;25175;50.140;18.990;2023-04-24T07:36:24;97441.50;;;16.23;36.82
39491;BME280;25175;50.140;18.990;2023-04-24T07:39:31;97429.81;;;16.34;36.89
39491;BME280;25175;50.140;18.990;2023-04-24T07:42:36;97414.47;;;16.36;36.95
39491;BME280;25175;50.140;18.990;2023-04-24T07:45:44;97430.03;;;16.53;36.39
39491;BME280;25175;50.140;18.990;2023-04-24T07:49:00;97425.78;;;16.62;36.44
39491;BME280;25175;50.140;18.990;2023-04-24T07:52:21;97428.66;;;16.70;35.63
39491;BME280;25175;50.140;18.990;2023-04-24T07:55:27;97415.88;;;16.77;36.16
39491;BME280;25175;50.140;18.990;2023-04-24T07:58:37;97423.03;;;16.82;35.62
39491;BME280;25175;50.140;18.990;2023-04-24T08:01:43;97417.44;;;16.83;36.35
39491;BME280;25175;50.140;18.990;2023-04-24T08:04:51;97398.94;;;16.73;35.27
39491;BME280;25175;50.140;18.990;2023-04-24T08:07:58;97412.59;;;16.95;36.77
39491;BME280;25175;50.140;18.990;2023-04-24T08:11:04;97410.97;;;17.04;36.17
39491;BME280;25175;50.140;18.990;2023-04-24T08:14:09;97404.03;;;17.13;36.23
39491;BME280;25175;50.140;18.990;2023-04-24T08:17:17;97410.31;;;17.27;35.35
39491;BME280;25175;50.140;18.990;2023-04-24T08:20:28;97408.63;;;17.41;35.76
39491;BME280;25175;50.140;18.990;2023-04-24T08:23:37;97403.78;;;17.48;32.75
39491;BME280;25175;50.140;18.990;2023-04-24T08:26:42;97395.25;;;17.56;33.40
39491;BME280;25175;50.140;18.990;2023-04-24T08:29:49;97403.59;;;17.68;32.50
39491;BME280;25175;50.140;18.990;2023-04-24T08:32:59;97398.22;;;17.78;32.55
39491;BME280;25175;50.140;18.990;2023-04-24T08:36:12;97360.41;;;17.63;33.28
39491;BME280;25175;50.140;18.990;2023-04-24T08:39:18;97389.00;;;17.94;32.81
39491;BME280;25175;50.140;18.990;2023-04-24T08:42:30;97392.41;;;18.00;31.95
39491;BME280;25175;50.140;18.990;2023-04-24T08:45:37;97387.59;;;18.07;32.68
39491;BME280;25175;50.140;18.990;2023-04-24T08:48:45;97401.25;;;18.19;32.36
39491;BME280;25175;50.140;18.990;2023-04-24T08:51:54;97381.78;;;18.28;31.50
39491;BME280;25175;50.140;18.990;2023-04-24T08:55:08;97384.28;;;18.38;30.86
39491;BME280;25175;50.140;18.990;2023-04-24T08:58:31;97099.44;;;16.65;32.03
39491;BME280;25175;50.140;18.990;2023-04-24T09:01:43;97374.00;;;18.55;31.79
39491;BME280;25175;50.140;18.990;2023-04-24T09:04:52;97375.44;;;18.66;31.65
39491;BME280;25175;50.140;18.990;2023-04-24T09:08:25;97373.72;;;18.75;31.71
39491;BME280;25175;50.140;18.990;2023-04-24T09:11:32;97372.53;;;18.86;31.52
39491;BME280;25175;50.140;18.990;2023-04-24T09:14:39;97366.84;;;18.93;31.42
39491;BME280;25175;50.140;18.990;2023-04-24T09:17:46;97373.25;;;19.10;31.48
39491;BME280;25175;50.140;18.990;2023-04-24T09:20:58;97364.88;;;19.17;32.43
39491;BME280;25175;50.140;18.990;2023-04-24T09:24:15;97370.50;;;19.15;31.73
39491;BME280;25175;50.140;18.990;2023-04-24T09:27:28;97373.38;;;19.19;31.52
39491;BME280;25175;50.140;18.990;2023-04-24T09:30:36;97360.28;;;19.22;30.25
39491;BME280;25175;50.140;18.990;2023-04-24T09:33:53;97368.97;;;19.28;31.53
39491;BME280;25175;50.140;18.990;2023-04-24T09:37:00;97350.13;;;19.24;32.57
39491;BME280;25175;50.140;18.990;2023-04-24T09:40:15;97355.38;;;19.29;31.59
39491;BME280;25175;50.140;18.990;2023-04-24T09:43:26;97356.78;;;19.40;32.53
39491;BME280;25175;50.140;18.990;2023-04-24T09:46:33;97352.97;;;19.46;31.77
39491;BME280;25175;50.140;18.990;2023-04-24T09:49:39;97341.31;;;19.42;30.66
39491;BME280;25175;50.140;18.990;2023-04-24T09:52:56;97351.53;;;19.54;31.73
39491;BME280;25175;50.140;18.990;2023-04-24T09:56:07;97355.19;;;19.58;31.79
39491;BME280;25175;50.140;18.990;2023-04-24T09:59:33;97358.06;;;19.61;31.77
39491;BME280;25175;50.140;18.990;2023-04-24T10:02:39;97355.31;;;19.66;32.21
39491;BME280;25175;50.140;18.990;2023-04-24T10:05:48;97345.34;;;19.72;32.90
39491;BME280;25175;50.140;18.990;2023-04-24T10:08:53;97349.31;;;19.74;31.70
39491;BME280;25175;50.140;18.990;2023-04-24T10:12:04;97343.22;;;19.74;31.58
39491;BME280;25175;50.140;18.990;2023-04-24T10:15:21;97334.72;;;19.72;32.37
39491;BME280;25175;50.140;18.990;2023-04-24T10:18:28;97344.59;;;19.71;30.48
39491;BME280;25175;50.140;18.990;2023-04-24T10:21:35;97351.38;;;19.64;30.86
39491;BME280;25175;50.140;18.990;2023-04-24T10:24:45;97345.34;;;19.58;31.15
39491;BME280;25175;50.140;18.990;2023-04-24T10:27:59;97354.81;;;19.46;31.96
39491;BME280;25175;50.140;18.990;2023-04-24T10:31:06;97348.31;;;19.38;31.71
39491;BME280;25175;50.140;18.990;2023-04-24T10:34:17;97343.72;;;19.25;32.34
39491;BME280;25175;50.140;18.990;2023-04-24T10:37:27;97350.94;;;19.25;32.13
39491;BME280;25175;50.140;18.990;2023-04-24T10:40:36;97361.44;;;19.16;32.45
39491;BME280;25175;50.140;18.990;2023-04-24T10:43:46;97352.47;;;18.94;33.05
39491;BME280;25175;50.140;18.990;2023-04-24T10:46:54;97367.56;;;18.80;33.23
39491;BME280;25175;50.140;18.990;2023-04-24T10:50:17;97361.91;;;18.63;33.47
39491;BME280;25175;50.140;18.990;2023-04-24T10:53:37;97361.84;;;18.49;34.34
39491;BME280;25175;50.140;18.990;2023-04-24T10:56:43;97345.44;;;18.24;33.92
39491;BME280;25175;50.140;18.990;2023-04-24T11:00:13;97366.44;;;18.20;34.16
39491;BME280;25175;50.140;18.990;2023-04-24T11:03:26;97367.16;;;18.07;34.44
39491;BME280;25175;50.140;18.990;2023-04-24T11:06:34;97365.88;;;18.00;34.66
39491;BME280;25175;50.140;18.990;2023-04-24T11:09:42;97378.97;;;17.91;34.63
39491;BME280;25175;50.140;18.990;2023-04-24T11:12:47;97365.25;;;17.84;34.93
39491;BME280;25175;50.140;18.990;2023-04-24T11:16:20;97375.28;;;17.87;35.13
39491;BME280;25175;50.140;18.990;2023-04-24T11:19:34;97373.44;;;17.88;35.37
39491;BME280;25175;50.140;18.990;2023-04-24T11:22:47;97366.50;;;17.92;34.75
39491;BME280;25175;50.140;18.990;2023-04-24T11:26:10;97100.00;;;16.28;34.54
39491;BME280;25175;50.140;18.990;2023-04-24T11:29:20;97364.50;;;18.02;34.88
39491;BME280;25175;50.140;18.990;2023-04-24T11:32:30;97370.56;;;18.08;34.40
39491;BME280;25175;50.140;18.990;2023-04-24T11:35:40;97353.66;;;17.99;34.73
39491;BME280;25175;50.140;18.990;2023-04-24T11:38:50;97374.31;;;18.07;34.40
39491;BME280;25175;50.140;18.990;2023-04-24T11:42:02;97371.97;;;18.00;34.25
39491;BME280;25175;50.140;18.990;2023-04-24T11:45:10;97377.38;;;17.90;34.38
39491;BME280;25175;50.140;18.990;2023-04-24T11:48:21;97374.78;;;17.85;35.24
39491;BME280;25175;50.140;18.990;2023-04-24T11:51:29;97379.56;;;17.83;35.56
39491;BME280;25175;50.140;18.990;2023-04-24T11:54:36;97383.88;;;17.79;36.08
39491;BME280;25175;50.140;18.990;2023-04-24T11:57:43;97365.94;;;17.66;37.12
39491;BME280;25175;50.140;18.990;2023-04-24T12:00:56;97383.47;;;17.67;36.96
39491;BME280;25175;50.140;18.990;2023-04-24T12:07:57;97390.81;;;17.42;36.78
39491;BME280;25175;50.140;18.990;2023-04-24T12:11:07;97371.59;;;17.21;37.07
39491;BME280;25175;50.140;18.990;2023-04-24T12:14:20;97376.16;;;17.16;37.49
39491;BME280;25175;50.140;18.990;2023-04-24T12:17:35;97372.00;;;17.05;38.07
39491;BME280;25175;50.140;18.990;2023-04-24T12:20:53;97379.63;;;17.11;38.81
39491;BME280;25175;50.140;18.990;2023-04-24T12:23:58;97382.59;;;17.10;39.10
39491;BME280;25175;50.140;18.990;2023-04-24T12:27:20;97373.31;;;17.07;39.56
39491;BME280;25175;50.140;18.990;2023-04-24T12:30:27;97378.66;;;17.02;39.72
39491;BME280;25175;50.140;18.990;2023-04-24T12:33:36;97380.56;;;16.92;39.62
39491;BME280;25175;50.140;18.990;2023-04-24T12:36:43;97117.81;;;15.21;40.15
39491;BME280;25175;50.140;18.990;2023-04-24T12:40:00;97373.75;;;16.81;40.33
39491;BME280;25175;50.140;18.990;2023-04-24T12:43:14;97367.72;;;16.70;40.25
39491;BME280;25175;50.140;18.990;2023-04-24T12:46:21;97373.88;;;16.61;40.87
39491;BME280;25175;50.140;18.990;2023-04-24T12:49:27;97380.50;;;16.58;41.24
39491;BME280;25175;50.140;18.990;2023-04-24T12:52:41;97374.19;;;16.49;41.18
39491;BME280;25175;50.140;18.990;2023-04-24T12:55:48;97369.44;;;16.41;41.51
39491;BME280;25175;50.140;18.990;2023-04-24T12:59:00;97375.28;;;16.33;41.82
39491;BME280;25175;50.140;18.990;2023-04-24T13:02:06;97362.63;;;16.20;42.23
39491;BME280;25175;50.140;18.990;2023-04-24T13:05:13;97370.56;;;16.20;42.40
39491;BME280;25175;50.140;18.990;2023-04-24T13:08:23;97358.16;;;16.16;42.70
39491;BME280;25175;50.140;18.990;2023-04-24T13:11:29;97358.97;;;16.11;42.69
39491;BME280;25175;50.140;18.990;2023-04-24T13:17:54;97337.88;;;15.87;43.04
39491;BME280;25175;50.140;18.990;2023-04-24T13:20:59;97365.38;;;15.90;44.00
39491;BME280;25175;50.140;18.990;2023-04-24T13:24:08;97362.47;;;15.82;44.19
39491;BME280;25175;50.140;18.990;2023-04-24T13:27:20;97354.84;;;15.71;44.36
39491;BME280;25175;50.140;18.990;2023-04-24T13:30:29;97337.13;;;15.46;44.75
39491;BME280;25175;50.140;18.990;2023-04-24T13:33:36;97360.13;;;15.55;45.13
39491;BME280;25175;50.140;18.990;2023-04-24T13:36:45;97380.75;;;15.53;45.41
39491;BME280;25175;50.140;18.990;2023-04-24T13:43:38;97347.47;;;15.48;45.77
39491;BME280;25175;50.140;18.990;2023-04-24T13:46:45;97354.84;;;15.45;45.92
39491;BME280;25175;50.140;18.990;2023-04-24T13:49:54;97354.84;;;15.35;46.38
39491;BME280;25175;50.140;18.990;2023-04-24T13:52:59;97319.72;;;15.10;46.85
39491;BME280;25175;50.140;18.990;2023-04-24T13:59:34;97346.69;;;15.17;47.75
39491;BME280;25175;50.140;18.990;2023-04-24T14:02:40;97350.38;;;15.16;48.22
39491;BME280;25175;50.140;18.990;2023-04-24T14:05:46;97345.06;;;15.16;48.29
39491;BME280;25175;50.140;18.990;2023-04-24T14:08:53;97342.72;;;15.15;48.34
39491;BME280;25175;50.140;18.990;2023-04-24T14:12:01;97340.34;;;15.18;48.84
39491;BME280;25175;50.140;18.990;2023-04-24T14:15:08;97339.28;;;15.19;48.42
39491;BME280;25175;50.140;18.990;2023-04-24T14:18:14;97348.00;;;15.20;48.74
39491;BME280;25175;50.140;18.990;2023-04-24T14:21:23;97343.25;;;15.17;48.36
39491;BME280;25175;50.140;18.990;2023-04-24T14:24:30;97339.53;;;15.13;47.88
39491;BME280;25175;50.140;18.990;2023-04-24T14:27:44;97346.66;;;15.02;47.80
39491;BME280;25175;50.140;18.990;2023-04-24T14:30:50;97336.09;;;14.87;47.82
39491;BME280;25175;50.140;18.990;2023-04-24T14:33:58;97337.94;;;14.87;47.58
39491;BME280;25175;50.140;18.990;2023-04-24T14:37:04;97347.44;;;14.83;48.02
39491;BME280;25175;50.140;18.990;2023-04-24T14:40:11;97297.22;;;14.63;48.22
39491;BME280;25175;50.140;18.990;2023-04-24T14:43:22;97336.06;;;14.82;48.39
39491;BME280;25175;50.140;18.990;2023-04-24T14:46:28;97336.88;;;14.83;48.39
39491;BME280;25175;50.140;18.990;2023-04-24T14:49:34;97337.13;;;14.81;48.30
39491;BME280;25175;50.140;18.990;2023-04-24T14:52:41;97333.16;;;14.78;48.43
39491;BME280;25175;50.140;18.990;2023-04-24T14:55:46;96996.38;;;12.66;48.53
39491;BME280;25175;50.140;18.990;2023-04-24T14:58:55;97340.81;;;14.80;49.06
39491;BME280;25175;50.140;18.990;2023-04-24T15:02:03;97342.41;;;14.81;48.84
39491;BME280;25175;50.140;18.990;2023-04-24T15:05:25;97337.63;;;14.78;48.52
39491;BME280;25175;50.140;18.990;2023-04-24T15:08:33;97338.16;;;14.75;49.04
39491;BME280;25175;50.140;18.990;2023-04-24T15:11:38;97327.59;;;14.75;49.57
39491;BME280;25175;50.140;18.990;2023-04-24T15:14:58;97333.16;;;14.78;50.14
39491;BME280;25175;50.140;18.990;2023-04-24T15:18:04;97336.59;;;14.79;49.66
39491;BME280;25175;50.140;18.990;2023-04-24T15:21:10;97338.16;;;14.80;49.54
39491;BME280;25175;50.140;18.990;2023-04-24T15:24:16;97332.59;;;14.72;49.07
39491;BME280;25175;50.140;18.990;2023-04-24T15:27:23;97344.25;;;14.76;49.18
39491;BME280;25175;50.140;18.990;2023-04-24T15:30:32;97342.63;;;14.74;49.24
39491;BME280;25175;50.140;18.990;2023-04-24T15:33:50;97280.00;;;14.35;49.33
39491;BME280;25175;50.140;18.990;2023-04-24T15:36:59;97337.63;;;14.78;49.33
39491;BME280;25175;50.140;18.990;2023-04-24T15:40:10;97337.34;;;14.74;48.95
39491;BME280;25175;50.140;18.990;2023-04-24T15:43:17;97331.81;;;14.71;48.83
39491;BME280;25175;50.140;18.990;2023-04-24T15:46:31;97337.63;;;14.68;48.51
39491;BME280;25175;50.140;18.990;2023-04-24T15:50:27;97333.66;;;14.66;48.73
39491;BME280;25175;50.140;18.990;2023-04-24T15:53:37;97338.94;;;14.66;48.65
39491;BME280;25175;50.140;18.990;2023-04-24T15:56:57;97338.38;;;14.63;48.80
39491;BME280;25175;50.140;18.990;2023-04-24T16:00:16;97331.50;;;14.58;48.88
39491;BME280;25175;50.140;18.990;2023-04-24T16:03:28;97342.63;;;14.60;49.13
39491;BME280;25175;50.140;18.990;2023-04-24T16:06:36;97335.75;;;14.63;49.10
39491;BME280;25175;50.140;18.990;2023-04-24T16:09:41;97225.25;;;13.91;48.74
39491;BME280;25175;50.140;18.990;2023-04-24T16:12:47;97334.41;;;14.56;48.80
39491;BME280;25175;50.140;18.990;2023-04-24T16:16:01;97333.88;;;14.54;49.16
39491;BME280;25175;50.140;18.990;2023-04-24T16:19:10;97322.78;;;14.47;49.19
39491;BME280;25175;50.140;18.990;2023-04-24T16:22:16;97331.25;;;14.54;49.24
39491;BME280;25175;50.140;18.990;2023-04-24T16:25:25;97337.31;;;14.50;49.20
39491;BME280;25175;50.140;18.990;2023-04-24T16:28:31;97337.06;;;14.46;49.40
39491;BME280;25175;50.140;18.990;2023-04-24T16:31:38;97326.72;;;14.35;49.58
39491;BME280;25175;50.140;18.990;2023-04-24T16:34:47;97341.75;;;14.39;49.64
39491;BME280;25175;50.140;18.990;2023-04-24T16:37:53;97209.59;;;13.59;49.94
39491;BME280;25175;50.140;18.990;2023-04-24T16:40:59;97334.09;;;14.33;50.44
39491;BME280;25175;50.140;18.990;2023-04-24T16:44:05;97362.56;;;14.31;50.73
39491;BME280;25175;50.140;18.990;2023-04-24T16:47:10;97325.06;;;14.19;51.14
39491;BME280;25175;50.140;18.990;2023-04-24T16:50:19;97336.97;;;14.21;51.34
39491;BME280;25175;50.140;18.990;2023-04-24T16:53:25;97336.16;;;14.16;51.94
39491;BME280;25175;50.140;18.990;2023-04-24T16:56:43;97344.56;;;14.13;52.51
39491;BME280;25175;50.140;18.990;2023-04-24T16:59:48;97336.13;;;14.11;53.92
39491;BME280;25175;50.140;18.990;2023-04-24T17:02:57;97341.38;;;14.06;54.82
39491;BME280;25175;50.140;18.990;2023-04-24T17:06:05;97327.13;;;14.02;54.92
39491;BME280;25175;50.140;18.990;2023-04-24T17:09:11;97331.91;;;14.05;56.39